Terminal Aerodrome Forecast
Issued by NWS Blacksburg, VA

Home | Current Version | Previous Version | Text Only | Print | Product List | Glossary On
Versions: 1 2 3 4 5 6 7 8 9 10 11 12 13 14 15 16 17
000
FTUS41 KRNK 231133
TAFBLF
TAF
KBLF 231133Z 2312/2412 24011KT P6SM -SHRA OVC040
     FM231400 24013G22KT P6SM BKN050
      TEMPO 2316/2318 4SM SHRA OVC025
     FM240200 21012G23KT 3SM SHRA OVC040
     FM240900 27010KT 4SM -SHRA OVC010=

USA.gov is the U.S. government's official web portal to all federal, state and local government web resources and services.